createdAt,value
2023-03-22T00:00:12.895Z,4.23
2023-03-22T00:00:44.683Z,3.90
2023-03-22T00:01:19.906Z,4.10
2023-03-22T00:01:53.810Z,4.43
2023-03-22T00:02:26.438Z,4.13
2023-03-22T00:02:58.375Z,3.90
2023-03-22T00:03:30.379Z,4.73
2023-03-22T00:04:02.250Z,4.60
2023-03-22T00:04:34.069Z,4.77
2023-03-22T00:05:06.424Z,3.93
2023-03-22T00:05:40.068Z,3.90
2023-03-22T00:06:12.505Z,4.27
2023-03-22T00:06:44.250Z,3.97
2023-03-22T00:07:15.986Z,4.10
2023-03-22T00:07:50.386Z,3.70
2023-03-22T00:08:22.134Z,3.83
2023-03-22T00:08:54.642Z,4.00
2023-03-22T00:09:26.467Z,4.43
2023-03-22T00:09:58.230Z,4.27
2023-03-22T00:10:30.001Z,3.60
2023-03-22T00:11:02.709Z,3.53
2023-03-22T00:11:34.630Z,4.30
2023-03-22T00:12:06.640Z,4.00
2023-03-22T00:12:38.371Z,4.03
2023-03-22T00:13:11.586Z,3.70
2023-03-22T00:13:44.045Z,3.63
2023-03-22T00:14:15.889Z,3.70
2023-03-22T00:14:48.832Z,4.00
2023-03-22T00:15:20.716Z,3.43
2023-03-22T00:15:52.522Z,3.50
2023-03-22T00:16:24.731Z,3.53
2023-03-22T00:16:56.677Z,3.43
2023-03-22T00:17:28.636Z,3.77
2023-03-22T00:18:02.168Z,3.57
2023-03-22T00:18:33.917Z,3.47
2023-03-22T00:19:05.665Z,4.10
2023-03-22T00:19:37.565Z,4.47
2023-03-22T00:20:11.537Z,4.13
2023-03-22T00:20:54.604Z,3.90
2023-03-22T00:21:26.368Z,3.63
2023-03-22T00:21:58.131Z,3.50
2023-03-22T00:22:29.952Z,3.67
2023-03-22T00:23:01.712Z,3.47
2023-03-22T00:23:33.484Z,3.40
2023-03-22T00:24:05.452Z,3.90
2023-03-22T00:24:37.714Z,3.97
2023-03-22T00:25:10.555Z,3.33
2023-03-22T00:25:44.349Z,3.67
2023-03-22T00:26:17.501Z,3.90
2023-03-22T00:26:49.271Z,3.67
2023-03-22T00:27:21.140Z,3.87
2023-03-22T00:27:53.325Z,3.87
2023-03-22T00:28:25.419Z,3.93
2023-03-22T00:28:57.160Z,3.80
2023-03-22T00:29:28.942Z,3.57
2023-03-22T00:30:00.886Z,4.00
2023-03-22T00:30:32.605Z,4.23
2023-03-22T00:31:05.457Z,3.97
2023-03-22T00:31:37.240Z,4.00
2023-03-22T00:32:09.002Z,3.70
2023-03-22T00:32:42.558Z,3.77
2023-03-22T00:33:14.345Z,3.90
2023-03-22T00:33:46.154Z,3.77
2023-03-22T00:34:18.124Z,4.17
2023-03-22T00:34:49.981Z,3.80
2023-03-22T00:35:21.823Z,3.50
2023-03-22T00:36:13.828Z,3.77
2023-03-22T00:36:45.543Z,3.73
2023-03-22T00:37:18.032Z,3.20
2023-03-22T00:37:51.749Z,3.07
2023-03-22T00:38:35.844Z,3.53
2023-03-22T00:39:13.069Z,3.03
2023-03-22T00:39:45.027Z,3.13
2023-03-22T00:40:18.342Z,3.33
2023-03-22T00:40:50.221Z,3.43
2023-03-22T00:41:23.322Z,3.60
2023-03-22T00:41:55.130Z,3.67
2023-03-22T00:42:27.243Z,3.40
2023-03-22T00:42:59.431Z,3.53
2023-03-22T00:43:31.276Z,3.20
2023-03-22T00:44:02.997Z,3.30
2023-03-22T00:44:34.835Z,2.97
2023-03-22T00:45:09.016Z,3.03
2023-03-22T00:45:41.212Z,3.30
2023-03-22T00:46:14.555Z,3.27
2023-03-22T00:46:46.356Z,3.07
2023-03-22T00:47:18.267Z,3.03
2023-03-22T00:47:50.362Z,3.60
2023-03-22T00:48:22.809Z,3.17
2023-03-22T00:48:54.564Z,3.10
2023-03-22T00:49:27.332Z,3.37
2023-03-22T00:49:59.461Z,3.40
2023-03-22T00:50:31.232Z,3.60
2023-03-22T00:51:03.393Z,3.80
2023-03-22T00:51:35.124Z,3.57
2023-03-22T00:52:06.882Z,3.47
2023-03-22T00:52:38.661Z,3.23
2023-03-22T00:53:10.418Z,3.03
2023-03-22T00:53:43.654Z,3.23
2023-03-22T00:54:17.100Z,3.80
2023-03-22T00:54:48.946Z,3.27
2023-03-22T00:55:20.759Z,3.30
2023-03-22T00:55:52.580Z,3.13
2023-03-22T00:56:25.660Z,3.07
2023-03-22T00:56:57.374Z,3.17
2023-03-22T00:57:29.131Z,3.43
2023-03-22T00:58:01.081Z,3.23
2023-03-22T00:58:33.342Z,3.27
2023-03-22T00:59:05.258Z,3.40
2023-03-22T00:59:38.712Z,3.17
2023-03-22T01:00:16.207Z,3.33
2023-03-22T01:00:48.542Z,3.33
2023-03-22T01:01:20.546Z,3.23
2023-03-22T01:01:52.328Z,3.40
2023-03-22T01:02:29.687Z,3.33
2023-03-22T01:03:04.756Z,3.13
2023-03-22T01:03:36.674Z,3.33
2023-03-22T01:04:08.577Z,3.03
2023-03-22T01:04:47.981Z,2.87
2023-03-22T01:05:22.068Z,3.63
2023-03-22T01:05:56.789Z,3.23
2023-03-22T01:06:28.599Z,3.00
2023-03-22T01:07:02.146Z,3.13
2023-03-22T01:07:33.916Z,3.30
2023-03-22T01:08:09.278Z,3.17
2023-03-22T01:08:41.165Z,3.27
2023-03-22T01:09:15.066Z,3.37
2023-03-22T01:09:48.676Z,3.37
2023-03-22T01:10:20.497Z,3.53
2023-03-22T01:10:52.643Z,3.60
2023-03-22T01:11:24.694Z,3.33
2023-03-22T01:11:57.899Z,3.17
2023-03-22T01:12:29.664Z,3.33
2023-03-22T01:13:01.441Z,2.80
2023-03-22T01:13:33.599Z,3.07
2023-03-22T01:14:05.278Z,3.37
2023-03-22T01:14:37.059Z,3.13
2023-03-22T01:15:10.385Z,3.27
2023-03-22T01:15:42.235Z,3.53
2023-03-22T01:16:13.983Z,3.37
2023-03-22T01:16:45.827Z,3.50
2023-03-22T01:17:17.648Z,3.43
2023-03-22T01:17:49.426Z,3.27
2023-03-22T01:18:22.400Z,3.07
2023-03-22T01:18:54.158Z,2.87
2023-03-22T01:19:27.496Z,3.00
2023-03-22T01:19:59.380Z,2.97
2023-03-22T01:20:32.324Z,3.03
2023-03-22T01:21:04.415Z,3.07
2023-03-22T01:21:36.218Z,3.30
2023-03-22T01:22:08.957Z,3.00
2023-03-22T01:22:41.091Z,3.10
2023-03-22T01:23:12.863Z,2.97
2023-03-22T01:23:44.719Z,3.07
2023-03-22T01:24:16.911Z,3.20
2023-03-22T01:24:50.140Z,3.13
2023-03-22T01:25:21.938Z,3.50
2023-03-22T01:25:53.701Z,3.17
2023-03-22T01:26:25.490Z,3.13
2023-03-22T01:26:57.544Z,3.43
2023-03-22T01:27:29.288Z,3.43
2023-03-22T01:28:02.776Z,3.33
2023-03-22T01:28:34.558Z,3.07
2023-03-22T01:29:06.381Z,3.07
2023-03-22T01:29:38.182Z,3.30
2023-03-22T01:30:11.200Z,3.33
2023-03-22T01:30:43.170Z,3.67
2023-03-22T01:31:14.979Z,3.37
2023-03-22T01:31:46.748Z,3.20
2023-03-22T01:32:18.471Z,3.70
2023-03-22T01:32:50.342Z,3.33
2023-03-22T01:33:22.703Z,3.70
2023-03-22T01:33:54.441Z,3.73
2023-03-22T01:34:26.857Z,3.57
2023-03-22T01:34:58.818Z,3.10
2023-03-22T01:35:30.967Z,2.90
2023-03-22T01:36:02.748Z,3.10
2023-03-22T01:36:34.541Z,2.77
2023-03-22T01:37:06.309Z,3.17
2023-03-22T01:37:38.075Z,2.87
2023-03-22T01:38:09.928Z,2.60
2023-03-22T01:38:41.741Z,2.83
2023-03-22T01:39:13.578Z,3.20
2023-03-22T01:39:45.543Z,3.07
2023-03-22T01:40:17.980Z,2.90
2023-03-22T01:40:49.749Z,3.37
2023-03-22T01:41:22.162Z,3.40
2023-03-22T01:41:53.941Z,3.00
2023-03-22T01:42:26.705Z,2.93
2023-03-22T01:42:58.606Z,3.33
2023-03-22T01:43:30.625Z,2.90
2023-03-22T01:44:11.305Z,2.90
2023-03-22T01:44:47.104Z,2.93
2023-03-22T01:45:35.074Z,3.03
2023-03-22T01:46:06.876Z,3.07
2023-03-22T01:46:40.329Z,2.57
2023-03-22T01:47:12.139Z,2.77
2023-03-22T01:47:52.300Z,2.80
2023-03-22T01:48:35.798Z,2.60
2023-03-22T01:49:13.537Z,2.43
2023-03-22T01:49:45.428Z,3.30
2023-03-22T01:50:18.453Z,3.17
2023-03-22T01:51:15.351Z,2.97
2023-03-22T01:51:51.117Z,2.80
2023-03-22T01:52:22.898Z,2.77
2023-03-22T01:52:57.509Z,2.83
2023-03-22T01:53:34.139Z,3.07
2023-03-22T01:54:29.394Z,2.60
2023-03-22T01:55:01.929Z,2.73
2023-03-22T01:55:34.262Z,3.10
2023-03-22T01:56:06.522Z,2.97
2023-03-22T01:56:41.298Z,3.07
2023-03-22T01:57:13.590Z,2.67
2023-03-22T01:57:46.056Z,3.07
2023-03-22T01:58:18.343Z,3.00
2023-03-22T01:58:52.110Z,2.77
2023-03-22T01:59:25.206Z,2.53
2023-03-22T01:59:57.590Z,2.30
2023-03-22T02:00:29.800Z,2.63
2023-03-22T02:01:01.999Z,2.90
2023-03-22T02:01:35.454Z,3.00
2023-03-22T02:02:07.997Z,3.07
2023-03-22T02:02:40.170Z,2.53
2023-03-22T02:03:15.772Z,2.53
2023-03-22T02:04:03.157Z,2.77
2023-03-22T02:04:39.199Z,2.73
2023-03-22T02:05:12.383Z,2.70
2023-03-22T02:05:44.492Z,2.73
2023-03-22T02:06:18.039Z,2.67
2023-03-22T02:06:55.724Z,2.43
2023-03-22T02:07:28.000Z,2.87
2023-03-22T02:07:59.844Z,2.67
2023-03-22T02:08:33.625Z,2.23
2023-03-22T02:09:11.235Z,2.67
2023-03-22T02:09:43.481Z,2.87
2023-03-22T02:10:19.180Z,2.80
2023-03-22T02:10:52.046Z,2.47
2023-03-22T02:11:41.710Z,2.57
2023-03-22T02:12:39.610Z,2.70
2023-03-22T02:13:38.957Z,2.83
2023-03-22T02:14:48.817Z,2.70
2023-03-22T02:15:42.973Z,3.10
2023-03-22T02:16:38.282Z,2.70
2023-03-22T02:17:13.256Z,2.63
2023-03-22T02:17:51.424Z,2.47
2023-03-22T02:18:38.884Z,2.27
2023-03-22T02:19:42.389Z,2.47
2023-03-22T02:20:38.869Z,2.13
2023-03-22T02:21:40.842Z,2.20
2023-03-22T02:22:39.099Z,2.43
2023-03-22T02:23:22.879Z,2.67
2023-03-22T02:24:28.312Z,3.23
2023-03-22T02:25:33.950Z,2.97
2023-03-22T02:26:44.124Z,2.90
2023-03-22T02:27:54.253Z,3.13
2023-03-22T02:28:43.992Z,2.90
2023-03-22T02:29:39.808Z,3.07
2023-03-22T02:30:39.508Z,3.43
2023-03-22T02:31:39.296Z,2.80
2023-03-22T02:32:29.994Z,3.10
2023-03-22T02:33:19.789Z,3.03
2023-03-22T02:34:28.818Z,2.97
2023-03-22T02:35:32.023Z,3.37
2023-03-22T02:36:39.327Z,3.73
2023-03-22T02:37:33.922Z,3.53
2023-03-22T02:38:26.988Z,3.73
2023-03-22T02:39:08.490Z,3.00
2023-03-22T02:39:52.132Z,3.50
2023-03-22T02:40:41.704Z,3.80
2023-03-22T02:41:25.556Z,3.00
2023-03-22T02:42:03.142Z,3.30
2023-03-22T02:42:52.765Z,3.07
2023-03-22T02:43:48.532Z,2.93
2023-03-22T02:44:23.345Z,2.73
2023-03-22T02:44:57.952Z,3.30
2023-03-22T02:45:38.239Z,3.73
2023-03-22T02:46:23.607Z,3.27
2023-03-22T02:47:04.947Z,3.27
2023-03-22T02:47:39.283Z,3.23
2023-03-22T02:48:22.721Z,3.47
2023-03-22T02:49:02.757Z,2.73
2023-03-22T02:49:50.160Z,3.30
2023-03-22T02:50:46.628Z,3.97
2023-03-22T02:51:25.862Z,3.50
2023-03-22T02:52:39.418Z,3.57
2023-03-22T02:53:23.810Z,3.43
2023-03-22T02:54:08.361Z,3.53
2023-03-22T02:54:50.824Z,3.23
2023-03-22T02:55:52.225Z,3.47
2023-03-22T02:56:54.320Z,3.00
2023-03-22T02:57:44.052Z,3.40
2023-03-22T02:58:22.257Z,3.73
2023-03-22T02:58:59.640Z,3.53
2023-03-22T02:59:37.722Z,3.67
2023-03-22T03:00:14.170Z,3.80
2023-03-22T03:00:51.174Z,3.57
2023-03-22T03:01:29.861Z,3.77
2023-03-22T03:02:04.589Z,3.87
2023-03-22T03:02:41.581Z,3.70
2023-03-22T03:03:18.404Z,3.83
2023-03-22T03:03:55.208Z,3.67
2023-03-22T03:04:34.672Z,3.60
2023-03-22T03:05:08.681Z,3.40
2023-03-22T03:05:48.931Z,3.70
2023-03-22T03:06:25.848Z,3.63
2023-03-22T03:07:09.483Z,3.60
2023-03-22T03:07:46.760Z,3.90
2023-03-22T03:08:21.156Z,3.67
2023-03-22T03:08:54.617Z,3.27
2023-03-22T03:09:26.788Z,3.73
2023-03-22T03:09:58.967Z,3.93
2023-03-22T03:10:31.617Z,3.67
2023-03-22T03:11:03.552Z,3.37
2023-03-22T03:11:36.665Z,3.33
2023-03-22T03:12:23.729Z,3.40
2023-03-22T03:12:55.504Z,3.43
2023-03-22T03:13:27.619Z,3.10
2023-03-22T03:13:59.541Z,3.30
2023-03-22T03:14:32.777Z,2.93
2023-03-22T03:15:14.857Z,3.50
2023-03-22T03:15:52.797Z,3.33
2023-03-22T03:16:29.460Z,4.03
2023-03-22T03:17:13.310Z,3.90
2023-03-22T03:17:56.565Z,3.30
2023-03-22T03:19:05.625Z,3.83
2023-03-22T03:20:03.816Z,3.63
2023-03-22T03:21:07.569Z,3.97
2023-03-22T03:21:59.633Z,3.83
2023-03-22T03:23:08.590Z,4.07
2023-03-22T03:23:49.698Z,3.80
2023-03-22T03:24:31.749Z,3.70
2023-03-22T03:25:23.560Z,3.77
2023-03-22T03:25:58.050Z,3.40
2023-03-22T03:26:40.727Z,3.50
2023-03-22T03:27:23.677Z,3.53
2023-03-22T03:28:30.078Z,3.47
2023-03-22T03:29:05.466Z,3.47
2023-03-22T03:29:53.041Z,3.97
2023-03-22T03:30:33.893Z,3.53
2023-03-22T03:31:11.817Z,4.17
2023-03-22T03:32:07.604Z,4.30
2023-03-22T03:32:53.747Z,3.83
2023-03-22T03:33:33.205Z,3.90
2023-03-22T03:34:30.098Z,3.93
2023-03-22T03:35:10.972Z,4.27
2023-03-22T03:36:00.126Z,4.23
2023-03-22T03:36:37.924Z,4.20
2023-03-22T03:37:15.986Z,4.17
2023-03-22T03:37:54.030Z,3.67
2023-03-22T03:38:30.896Z,3.87
2023-03-22T03:39:08.050Z,3.87
2023-03-22T03:39:46.704Z,4.67
2023-03-22T03:40:24.757Z,5.57
2023-03-22T03:41:03.957Z,6.50
2023-03-22T03:41:37.104Z,7.60
2023-03-22T03:42:13.901Z,7.97
2023-03-22T03:42:51.969Z,8.47
2023-03-22T03:43:25.719Z,8.83
2023-03-22T03:43:59.554Z,9.10
2023-03-22T03:44:36.055Z,9.30
2023-03-22T03:45:09.145Z,9.10
2023-03-22T03:45:41.720Z,8.70
2023-03-22T03:46:14.734Z,8.77
2023-03-22T03:46:48.341Z,8.77
2023-03-22T03:47:21.058Z,8.97
2023-03-22T03:47:59.097Z,8.90
2023-03-22T03:48:35.071Z,8.50
2023-03-22T03:49:10.107Z,8.63
2023-03-22T03:49:42.279Z,8.77
2023-03-22T03:50:16.617Z,8.53
2023-03-22T03:50:52.502Z,9.40
2023-03-22T03:51:27.308Z,9.80
2023-03-22T03:52:00.119Z,8.73
2023-03-22T03:52:32.481Z,9.57
2023-03-22T03:53:04.450Z,8.87
2023-03-22T03:53:36.245Z,8.47
2023-03-22T03:54:08.027Z,8.60
2023-03-22T03:54:39.975Z,9.10
2023-03-22T03:55:11.930Z,8.40
2023-03-22T03:55:43.820Z,8.80
2023-03-22T03:56:15.723Z,8.83
2023-03-22T03:56:48.037Z,9.30
2023-03-22T03:57:19.804Z,9.30
2023-03-22T03:57:51.632Z,9.13
2023-03-22T03:58:23.493Z,8.87
2023-03-22T03:58:55.763Z,9.23
2023-03-22T03:59:27.569Z,9.93
2023-03-22T03:59:59.372Z,9.23
2023-03-22T04:00:31.285Z,8.83
2023-03-22T04:01:04.182Z,8.40
2023-03-22T04:01:36.529Z,8.77
2023-03-22T04:02:08.917Z,8.33
2023-03-22T04:02:44.158Z,7.53
2023-03-22T04:03:16.190Z,8.40
2023-03-22T04:03:50.747Z,8.53
2023-03-22T04:04:29.547Z,8.53
2023-03-22T04:05:01.654Z,8.33
2023-03-22T04:05:34.086Z,8.67
2023-03-22T04:06:06.555Z,8.17
2023-03-22T04:06:39.571Z,8.93
2023-03-22T04:07:11.569Z,8.47
2023-03-22T04:07:43.357Z,8.13
2023-03-22T04:08:15.407Z,7.73
2023-03-22T04:08:53.609Z,8.57
2023-03-22T04:09:28.053Z,8.63
2023-03-22T04:10:00.247Z,9.03
2023-03-22T04:10:32.016Z,8.87
2023-03-22T04:11:03.889Z,8.87
2023-03-22T04:11:36.108Z,8.53
2023-03-22T04:12:11.575Z,9.30
2023-03-22T04:12:43.297Z,9.10
2023-03-22T04:13:15.094Z,9.43
2023-03-22T04:13:46.905Z,9.53
2023-03-22T04:14:18.852Z,9.47
2023-03-22T04:14:50.686Z,9.70
2023-03-22T04:15:22.941Z,10.10
2023-03-22T04:15:57.276Z,10.63
2023-03-22T04:16:29.141Z,10.00
2023-03-22T04:17:01.317Z,9.13
2023-03-22T04:17:33.124Z,9.83
2023-03-22T04:18:05.144Z,10.27
2023-03-22T04:18:37.131Z,10.23
2023-03-22T04:19:08.965Z,9.90
2023-03-22T04:19:42.306Z,9.60
2023-03-22T04:20:14.634Z,10.30
2023-03-22T04:20:47.243Z,10.97
2023-03-22T04:21:19.885Z,10.60
2023-03-22T04:21:53.331Z,10.40
2023-03-22T04:22:26.413Z,9.83
2023-03-22T04:22:58.204Z,9.93
2023-03-22T04:23:29.992Z,9.70
2023-03-22T04:24:01.837Z,10.60
2023-03-22T04:24:33.608Z,10.57
2023-03-22T04:25:11.823Z,10.37
2023-03-22T04:25:43.826Z,10.47
2023-03-22T04:26:16.040Z,10.90
2023-03-22T04:26:48.109Z,10.53
2023-03-22T04:27:21.615Z,11.40
2023-03-22T04:27:55.918Z,11.33
2023-03-22T04:28:27.698Z,11.80
2023-03-22T04:28:59.733Z,11.07
2023-03-22T04:29:32.344Z,10.97
2023-03-22T04:30:05.956Z,11.60
2023-03-22T04:30:39.058Z,11.57
2023-03-22T04:31:11.048Z,11.70
2023-03-22T04:31:42.963Z,11.30
2023-03-22T04:32:23.038Z,11.10
2023-03-22T04:32:55.034Z,11.90
2023-03-22T04:33:26.759Z,10.63
2023-03-22T04:34:00.543Z,11.10
2023-03-22T04:34:32.663Z,11.37
2023-03-22T04:35:05.569Z,11.10
2023-03-22T04:35:37.392Z,11.17
2023-03-22T04:36:16.216Z,11.07
2023-03-22T04:36:48.052Z,11.23
2023-03-22T04:37:22.608Z,10.90
2023-03-22T04:37:54.441Z,12.10
2023-03-22T04:38:26.293Z,11.93
2023-03-22T04:38:58.333Z,11.43
2023-03-22T04:39:30.197Z,12.37
2023-03-22T04:40:02.155Z,12.27
2023-03-22T04:40:36.745Z,12.37
2023-03-22T04:41:09.068Z,11.90
2023-03-22T04:41:40.881Z,11.70
2023-03-22T04:42:13.143Z,12.23
2023-03-22T04:42:45.657Z,11.50
2023-03-22T04:43:19.007Z,11.17
2023-03-22T04:43:51.048Z,10.73
2023-03-22T04:44:22.893Z,10.87
2023-03-22T04:44:54.637Z,11.27
2023-03-22T04:45:29.338Z,11.57
2023-03-22T04:46:04.307Z,11.77
2023-03-22T04:46:37.214Z,11.07
2023-03-22T04:47:09.065Z,10.70
2023-03-22T04:47:40.937Z,10.70
2023-03-22T04:48:12.753Z,11.00
2023-03-22T04:48:44.727Z,11.67
2023-03-22T04:49:17.118Z,11.30
2023-03-22T04:49:48.942Z,10.93
2023-03-22T04:50:20.964Z,11.60
2023-03-22T04:50:53.519Z,12.67
2023-03-22T04:51:26.680Z,12.30
2023-03-22T04:51:58.492Z,11.80
2023-03-22T04:52:30.294Z,11.80
2023-03-22T04:53:02.058Z,12.17
2023-03-22T04:53:38.832Z,11.93
2023-03-22T04:54:10.646Z,11.97
2023-03-22T04:54:42.466Z,12.00
2023-03-22T04:55:14.266Z,12.37
2023-03-22T04:55:46.033Z,12.03
2023-03-22T04:56:18.101Z,12.10
2023-03-22T04:56:50.760Z,12.07
2023-03-22T04:57:22.804Z,11.73
2023-03-22T04:57:54.916Z,11.87
2023-03-22T04:58:27.769Z,11.93
2023-03-22T04:58:59.584Z,11.33
2023-03-22T04:59:31.376Z,11.77
2023-03-22T05:00:07.840Z,13.03
2023-03-22T05:00:42.516Z,12.13
2023-03-22T05:01:17.554Z,12.47
2023-03-22T05:01:51.657Z,12.17
2023-03-22T05:02:23.712Z,13.63
2023-03-22T05:02:56.582Z,12.40
2023-03-22T05:03:28.628Z,12.00
2023-03-22T05:04:00.552Z,12.17
2023-03-22T05:04:32.465Z,12.20
2023-03-22T05:05:04.823Z,12.23
2023-03-22T05:05:36.687Z,12.67
2023-03-22T05:06:10.215Z,12.73
2023-03-22T05:06:42.637Z,12.87
2023-03-22T05:07:14.459Z,12.53
2023-03-22T05:07:46.383Z,13.43
2023-03-22T05:08:18.659Z,13.17
2023-03-22T05:08:50.638Z,12.40
2023-03-22T05:09:23.627Z,13.23
2023-03-22T05:09:55.533Z,12.37
2023-03-22T05:10:27.331Z,12.60
2023-03-22T05:11:04.568Z,13.43
2023-03-22T05:11:37.159Z,12.97
2023-03-22T05:12:08.995Z,13.03
2023-03-22T05:12:41.007Z,13.60
2023-03-22T05:13:12.804Z,13.37
2023-03-22T05:13:44.630Z,13.13
2023-03-22T05:14:16.533Z,12.33
2023-03-22T05:14:48.445Z,12.43
2023-03-22T05:15:20.260Z,12.00
2023-03-22T05:15:52.289Z,12.33
2023-03-22T05:16:25.541Z,12.47
2023-03-22T05:16:57.725Z,12.00
2023-03-22T05:17:29.527Z,12.13
2023-03-22T05:18:01.340Z,12.00
2023-03-22T05:18:33.583Z,12.17
2023-03-22T05:19:06.759Z,11.97
2023-03-22T05:19:38.699Z,12.60
2023-03-22T05:20:11.728Z,11.70
2023-03-22T05:20:44.338Z,12.50
2023-03-22T05:21:22.087Z,12.70
2023-03-22T05:21:58.673Z,12.63
2023-03-22T05:22:30.472Z,11.17
2023-03-22T05:23:05.409Z,11.73
2023-03-22T05:23:37.202Z,11.40
2023-03-22T05:24:09.106Z,11.07
2023-03-22T05:24:40.876Z,11.80
2023-03-22T05:25:12.735Z,11.43
2023-03-22T05:25:45.320Z,11.27
2023-03-22T05:26:20.550Z,11.60
2023-03-22T05:26:54.023Z,10.97
2023-03-22T05:27:31.762Z,10.83
2023-03-22T05:28:04.293Z,11.00
2023-03-22T05:28:37.578Z,12.20
2023-03-22T05:29:10.974Z,11.90
2023-03-22T05:29:45.111Z,12.47
2023-03-22T05:30:17.033Z,13.23
2023-03-22T05:30:50.092Z,13.40
2023-03-22T05:31:22.603Z,15.43
2023-03-22T05:31:54.496Z,16.80
2023-03-22T05:32:29.418Z,17.70
2023-03-22T05:33:04.012Z,20.20
2023-03-22T05:33:35.984Z,22.13
2023-03-22T05:34:08.218Z,23.37
2023-03-22T05:34:42.886Z,23.23
2023-03-22T05:35:14.699Z,22.53
2023-03-22T05:35:46.597Z,21.53
2023-03-22T05:36:20.814Z,21.73
2023-03-22T05:36:52.632Z,20.83
2023-03-22T05:37:24.581Z,20.00
2023-03-22T05:37:57.663Z,18.77
2023-03-22T05:38:29.572Z,17.77
2023-03-22T05:39:01.505Z,17.10
2023-03-22T05:39:33.481Z,16.90
2023-03-22T05:40:10.026Z,15.90
2023-03-22T05:40:42.115Z,17.60
2023-03-22T05:41:14.832Z,15.90
2023-03-22T05:41:46.967Z,15.17
2023-03-22T05:42:18.765Z,14.83
2023-03-22T05:42:50.987Z,14.33
2023-03-22T05:43:22.895Z,13.73
2023-03-22T05:43:55.176Z,13.80
2023-03-22T05:44:27.029Z,13.50
2023-03-22T05:44:58.797Z,13.17
2023-03-22T05:45:32.537Z,14.23
2023-03-22T05:46:08.834Z,14.90
2023-03-22T05:46:40.957Z,13.63
2023-03-22T05:47:12.910Z,14.03
2023-03-22T05:47:44.829Z,14.07
2023-03-22T05:48:17.212Z,14.53
2023-03-22T05:48:49.070Z,17.27
2023-03-22T05:49:20.922Z,15.07
2023-03-22T05:49:53.113Z,15.10
2023-03-22T05:50:25.443Z,14.67
2023-03-22T05:50:57.248Z,14.70
2023-03-22T05:51:29.923Z,15.00
2023-03-22T05:52:04.409Z,15.63
2023-03-22T05:52:36.840Z,16.47
2023-03-22T05:53:08.748Z,16.30
2023-03-22T05:53:40.720Z,14.93
2023-03-22T05:54:12.480Z,15.23
2023-03-22T05:54:44.287Z,15.63
2023-03-22T05:55:19.938Z,15.90
2023-03-22T05:55:53.071Z,15.80
2023-03-22T05:56:25.972Z,16.07
2023-03-22T05:56:58.875Z,16.03
2023-03-22T05:57:30.662Z,16.03
2023-03-22T05:58:03.288Z,16.13
2023-03-22T05:58:35.227Z,14.87
2023-03-22T05:59:07.478Z,14.40
2023-03-22T05:59:39.304Z,14.67
2023-03-22T06:00:15.253Z,14.53
2023-03-22T06:00:50.007Z,15.20
2023-03-22T06:01:23.221Z,14.93
2023-03-22T06:01:55.536Z,15.30
2023-03-22T06:02:27.681Z,16.13
2023-03-22T06:03:03.965Z,16.37
2023-03-22T06:03:36.036Z,17.00
2023-03-22T06:04:07.917Z,18.60
2023-03-22T06:04:41.785Z,17.50
2023-03-22T06:05:16.085Z,17.57
2023-03-22T06:05:50.810Z,17.97
2023-03-22T06:06:24.017Z,17.03
2023-03-22T06:06:56.137Z,15.90
2023-03-22T06:07:27.951Z,16.80
2023-03-22T06:08:00.423Z,17.40
2023-03-22T06:08:33.815Z,17.30
2023-03-22T06:09:16.569Z,17.67
2023-03-22T06:09:50.338Z,18.30
2023-03-22T06:10:23.072Z,17.13
2023-03-22T06:10:55.056Z,17.57
2023-03-22T06:11:26.891Z,19.00
2023-03-22T06:11:59.303Z,18.47
2023-03-22T06:12:31.591Z,18.83
2023-03-22T06:13:03.433Z,18.93
2023-03-22T06:13:35.478Z,20.17
2023-03-22T06:14:07.284Z,19.00
2023-03-22T06:14:39.129Z,19.90
2023-03-22T06:15:11.945Z,20.33
2023-03-22T06:15:43.727Z,20.03
2023-03-22T06:16:16.278Z,19.93
2023-03-22T06:16:48.256Z,20.77
2023-03-22T06:17:20.339Z,20.27
2023-03-22T06:17:52.180Z,20.13
2023-03-22T06:18:24.057Z,20.73
2023-03-22T06:18:56.111Z,21.47
2023-03-22T06:19:28.132Z,21.60
2023-03-22T06:20:00.093Z,21.03
2023-03-22T06:20:31.958Z,21.40
2023-03-22T06:21:03.914Z,21.53
2023-03-22T06:21:35.798Z,21.93
2023-03-22T06:22:07.666Z,22.47
2023-03-22T06:22:40.419Z,21.77
2023-03-22T06:23:12.300Z,21.83
2023-03-22T06:23:44.166Z,23.20
2023-03-22T06:24:16.232Z,23.03
2023-03-22T06:24:49.587Z,22.77
2023-03-22T06:25:21.368Z,21.83
2023-03-22T06:25:53.309Z,21.47
2023-03-22T06:26:25.109Z,21.73
2023-03-22T06:26:56.957Z,22.43
2023-03-22T06:27:29.266Z,22.60
2023-03-22T06:28:02.805Z,22.93
2023-03-22T06:28:34.577Z,21.60
2023-03-22T06:29:06.639Z,21.93
2023-03-22T06:29:38.540Z,20.93
2023-03-22T06:30:10.542Z,21.03
2023-03-22T06:30:42.777Z,23.03
2023-03-22T06:31:14.769Z,23.93
2023-03-22T06:31:47.965Z,22.37
2023-03-22T06:32:21.009Z,22.27
2023-03-22T06:32:52.962Z,21.77
2023-03-22T06:33:24.847Z,22.53
2023-03-22T06:33:56.716Z,22.17
2023-03-22T06:34:28.911Z,23.10
2023-03-22T06:35:00.789Z,22.30
2023-03-22T06:35:33.691Z,22.80
2023-03-22T06:36:06.167Z,22.23
2023-03-22T06:36:37.975Z,20.97
2023-03-22T06:37:09.746Z,21.33
2023-03-22T06:37:41.954Z,21.37
2023-03-22T06:38:13.772Z,22.10
2023-03-22T06:38:45.634Z,21.20
2023-03-22T06:39:17.437Z,21.73
2023-03-22T06:39:49.438Z,21.57
2023-03-22T06:40:21.352Z,22.00
2023-03-22T06:40:53.185Z,21.83
2023-03-22T06:41:25.413Z,22.33
2023-03-22T06:41:57.294Z,22.80
2023-03-22T06:42:31.048Z,23.67
2023-03-22T06:43:06.845Z,22.67
2023-03-22T06:43:39.073Z,22.37
2023-03-22T06:44:11.154Z,22.83
2023-03-22T06:44:44.699Z,21.53
2023-03-22T06:45:16.955Z,21.73
2023-03-22T06:45:49.067Z,21.43
2023-03-22T06:46:20.925Z,23.40
2023-03-22T06:46:52.796Z,22.97
2023-03-22T06:47:25.029Z,23.20
2023-03-22T06:47:56.906Z,23.33
2023-03-22T06:48:28.824Z,23.07
2023-03-22T06:49:00.869Z,23.20
2023-03-22T06:49:32.980Z,23.77
2023-03-22T06:50:23.597Z,23.13
2023-03-22T06:50:55.514Z,25.73
2023-03-22T06:51:27.357Z,24.77
2023-03-22T06:52:02.131Z,23.43
2023-03-22T06:52:34.005Z,23.63
2023-03-22T06:53:06.513Z,23.87
2023-03-22T06:53:38.382Z,23.43
2023-03-22T06:54:12.743Z,25.13
2023-03-22T06:54:45.361Z,25.73
2023-03-22T06:55:17.189Z,26.60
2023-03-22T06:55:49.176Z,26.67
2023-03-22T06:56:21.033Z,45.77
2023-03-22T06:56:52.874Z,70.00
2023-03-22T06:57:24.928Z,41.73
2023-03-22T06:57:56.727Z,28.60
2023-03-22T06:58:28.543Z,26.73
2023-03-22T06:59:00.505Z,27.30
2023-03-22T06:59:32.260Z,25.63
2023-03-22T07:00:05.393Z,26.53
2023-03-22T07:00:39.089Z,53.80
2023-03-22T07:01:11.377Z,87.07
2023-03-22T07:01:43.306Z,58.77
2023-03-22T07:02:15.566Z,50.97
2023-03-22T07:02:47.409Z,90.60
2023-03-22T07:03:19.241Z,96.40
2023-03-22T07:03:51.924Z,81.80
2023-03-22T07:04:25.174Z,49.83
2023-03-22T07:04:57.116Z,43.90
2023-03-22T07:05:29.307Z,60.40
2023-03-22T07:06:06.081Z,50.63
2023-03-22T07:06:37.908Z,49.67
2023-03-22T07:07:09.795Z,43.33
2023-03-22T07:07:44.328Z,38.77
2023-03-22T07:08:16.843Z,31.90
2023-03-22T07:08:50.742Z,28.70
2023-03-22T07:09:25.031Z,26.83
2023-03-22T07:09:57.227Z,26.87
2023-03-22T07:10:30.017Z,25.90
2023-03-22T07:11:01.982Z,24.50
2023-03-22T07:11:34.175Z,24.10
2023-03-22T07:12:07.143Z,24.93
2023-03-22T07:12:39.286Z,25.83
2023-03-22T07:13:11.250Z,26.83
2023-03-22T07:13:43.242Z,25.43
2023-03-22T07:14:15.076Z,24.90
2023-03-22T07:14:46.976Z,24.17
2023-03-22T07:15:20.313Z,22.83
2023-03-22T07:16:00.261Z,23.30
2023-03-22T07:16:32.164Z,23.50
2023-03-22T07:17:22.561Z,23.63
2023-03-22T07:17:54.392Z,22.50
2023-03-22T07:18:26.720Z,22.73
2023-03-22T07:18:58.809Z,22.97
2023-03-22T07:19:32.003Z,22.80
2023-03-22T07:20:04.273Z,22.37
2023-03-22T07:20:41.642Z,21.73
2023-03-22T07:21:14.194Z,22.10
2023-03-22T07:21:46.147Z,22.00
2023-03-22T07:22:18.071Z,22.43
2023-03-22T07:22:51.003Z,21.90
2023-03-22T07:23:22.992Z,22.20
2023-03-22T07:23:55.482Z,22.40
2023-03-22T07:24:27.303Z,21.70
2023-03-22T07:25:01.588Z,21.30
2023-03-22T07:25:33.698Z,21.33
2023-03-22T07:26:06.156Z,21.67
2023-03-22T07:26:41.347Z,21.53
2023-03-22T07:27:13.159Z,21.23
2023-03-22T07:27:45.081Z,20.40
2023-03-22T07:28:17.185Z,20.90
2023-03-22T07:28:49.077Z,20.83
2023-03-22T07:29:21.602Z,21.10
2023-03-22T07:29:53.470Z,20.37
2023-03-22T07:30:25.350Z,19.57
2023-03-22T07:31:06.292Z,19.57
2023-03-22T07:31:38.224Z,20.57
2023-03-22T07:32:11.550Z,19.20
2023-03-22T07:32:43.332Z,20.23
2023-03-22T07:33:15.590Z,20.80
2023-03-22T07:33:48.527Z,20.27
2023-03-22T07:34:20.395Z,19.87
2023-03-22T07:34:52.238Z,19.77
2023-03-22T07:35:26.614Z,19.70
2023-03-22T07:35:58.826Z,18.37
2023-03-22T07:36:31.200Z,18.93
2023-03-22T07:37:03.561Z,19.47
2023-03-22T07:37:35.576Z,19.93
2023-03-22T07:38:07.452Z,20.37